Time;durP1;ratioP1;P1;durP2;ratioP2;P2;SDS_P1;SDS_P2;PMS_P1;PMS_P2;Temp;Humidity;BMP_temperature;BMP_pressure;BME280_temperature;BME280_humidity;BME280_pressure;Samples;Min_cycle;Max_cycle;Signal;HPM_P1;HPM_P2
2023/05/18 00:00:45;;;;;;;68.70;45.65;;;;;;;17.11;50.20;93878.16;4993107;28;20060;-91
2023/05/18 00:03:11;;;;;;;70.95;49.65;;;;;;;17.09;50.47;93882.63;4993246;28;20431;-92
2023/05/18 00:05:36;;;;;;;71.30;49.05;;;;;;;17.10;50.29;93882.09;4977226;28;20065;-91
2023/05/18 00:08:02;;;;;;;61.53;45.63;;;;;;;17.11;50.62;93880.88;4976986;28;20476;-92
2023/05/18 00:10:28;;;;;;;67.60;46.17;;;;;;;17.09;50.41;93879.91;4975735;28;20685;-91
2023/05/18 00:12:53;;;;;;;67.50;45.90;;;;;;;17.10;50.55;93875.94;4993315;28;20149;-92
2023/05/18 00:15:18;;;;;;;70.72;46.15;;;;;;;17.14;50.18;93879.16;4992950;28;20499;-90
2023/05/18 00:17:44;;;;;;;66.22;45.30;;;;;;;17.09;50.33;93877.91;4993451;28;20060;-91
2023/05/18 00:20:10;;;;;;;64.68;45.15;;;;;;;17.10;50.19;93881.41;4992833;28;20034;-91
2023/05/18 00:22:35;;;;;;;68.78;47.70;;;;;;;17.09;50.26;93874.44;4976371;28;20073;-92
2023/05/18 00:25:01;;;;;;;64.63;45.53;;;;;;;17.06;50.58;93869.94;4976825;28;20096;-90
2023/05/18 00:27:26;;;;;;;69.95;46.17;;;;;;;17.07;50.37;93868.72;4973985;28;20550;-92
2023/05/18 00:29:52;;;;;;;66.40;46.35;;;;;;;17.06;50.17;93870.69;4975948;28;20080;-92
2023/05/18 00:32:17;;;;;;;61.08;44.05;;;;;;;17.09;50.35;93855.31;4974197;28;20543;-90
2023/05/18 00:34:42;;;;;;;62.70;44.05;;;;;;;17.11;50.55;93864.47;4975471;28;20049;-89
2023/05/18 00:37:08;;;;;;;65.38;44.83;;;;;;;17.08;50.10;93856.56;4957820;28;20566;-89
2023/05/18 00:39:33;;;;;;;64.05;43.53;;;;;;;17.11;50.18;93861.75;4975973;28;20039;-89
2023/05/18 00:41:59;;;;;;;61.53;43.30;;;;;;;17.08;50.70;93851.84;4974484;28;20049;-92
2023/05/18 00:44:24;;;;;;;61.28;43.85;;;;;;;17.06;50.26;93853.56;4990392;28;20109;-90
2023/05/18 00:46:50;;;;;;;64.28;43.50;;;;;;;17.06;50.80;93857.03;4957836;28;20046;-93
2023/05/18 00:49:15;;;;;;;61.90;44.30;;;;;;;17.05;50.30;93855.53;4958063;28;20088;-91
2023/05/18 00:51:40;;;;;;;59.40;43.20;;;;;;;17.05;50.83;93855.53;4954828;28;20050;-91
2023/05/18 00:54:07;;;;;;;60.20;42.17;;;;;;;17.09;50.41;93858.78;4979316;28;20455;-90
2023/05/18 00:56:33;;;;;;;62.10;44.10;;;;;;;17.04;50.60;93845.09;4975053;28;20158;-90
2023/05/18 00:58:58;;;;;;;62.58;42.67;;;;;;;17.03;50.33;93847.09;4956148;28;20091;-91
2023/05/18 01:01:29;;;;;;;62.15;43.60;;;;;;;17.07;50.49;93855.06;4955169;28;20278;-92
2023/05/18 01:03:55;;;;;;;58.20;42.78;;;;;;;17.06;50.25;93853.56;4957724;28;20042;-92
2023/05/18 01:06:24;;;;;;;60.13;42.60;;;;;;;17.02;50.71;93848.31;4956382;28;20031;-89
2023/05/18 01:08:50;;;;;;;56.35;40.80;;;;;;;17.06;50.29;93851.56;4973134;28;20058;-88
2023/05/18 01:11:38;;;;;;;53.72;39.60;;;;;;;17.05;50.53;93846.59;4954793;28;20085;-90
2023/05/18 01:14:33;;;;;;;53.15;39.00;;;;;;;17.08;50.76;93856.56;4998178;28;20045;-91
2023/05/18 01:17:11;;;;;;;61.45;41.00;;;;;;;17.04;50.16;93859.50;4998972;28;20042;-93
2023/05/18 01:19:45;;;;;;;54.67;38.70;;;;;;;17.06;50.22;93859.78;4988455;28;20117;-91
2023/05/18 01:22:49;;;;;;;54.75;39.33;;;;;;;17.01;50.43;93857.75;4988387;28;20046;-91
2023/05/18 01:25:32;;;;;;;51.70;37.15;;;;;;;17.05;50.60;93858.28;4989471;28;20617;-92
2023/05/18 01:28:05;;;;;;;49.22;37.50;;;;;;;17.04;50.67;93854.06;4972440;28;20046;-90
2023/05/18 01:30:36;;;;;;;56.40;38.00;;;;;;;17.04;50.48;93853.31;4956663;28;20030;-92
2023/05/18 01:33:05;;;;;;;;;;;;;;;17.06;50.15;93854.31;4971810;28;20271;-91
2023/05/18 01:35:31;;;;;;;51.55;37.33;;;;;;;17.02;50.38;93850.31;4972071;28;20009;-90
2023/05/18 01:37:56;;;;;;;52.15;38.00;;;;;;;17.03;50.54;93849.81;4961874;28;20392;-93
2023/05/18 01:40:21;;;;;;;53.17;39.53;;;;;;;17.00;50.63;93860.97;4980471;28;20053;-91
2023/05/18 01:42:49;;;;;;;48.03;34.03;;;;;;;17.07;50.51;93863.25;4971776;28;20066;-92
2023/05/18 01:45:20;;;;;;;49.58;35.88;;;;;;;17.09;50.33;93858.78;4971301;28;20052;-93
2023/05/18 01:47:46;;;;;;;48.05;34.92;;;;;;;17.04;50.31;93851.31;4971815;28;20050;-93
2023/05/18 01:50:13;;;;;;;47.80;34.60;;;;;;;16.99;50.34;93849.31;4971957;28;20073;-92
2023/05/18 01:52:43;;;;;;;53.10;35.47;;;;;;;17.02;50.61;93850.31;4955727;28;20121;-92
2023/05/18 01:55:08;;;;;;;49.38;35.13;;;;;;;17.01;50.32;93851.53;4971612;28;20069;-90
2023/05/18 01:57:34;;;;;;;45.42;32.95;;;;;;;17.10;50.27;93854.06;4978134;28;20041;-90
2023/05/18 01:59:59;;;;;;;51.95;35.55;;;;;;;17.02;50.50;93855.78;4974975;28;20130;-92
2023/05/18 02:02:25;;;;;;;48.13;34.58;;;;;;;16.99;50.67;93857.50;4989890;28;20058;-90
2023/05/18 02:04:51;;;;;;;52.50;34.95;;;;;;;17.08;50.30;93853.81;4991431;28;20114;-90
2023/05/18 02:07:16;;;;;;;47.08;34.38;;;;;;;17.07;50.22;93861.25;5006227;28;20471;-92
2023/05/18 02:09:43;;;;;;;45.13;33.42;;;;;;;17.08;50.04;93854.56;4973944;28;20140;-90
2023/05/18 02:12:08;;;;;;;48.28;34.63;;;;;;;17.05;50.57;93850.09;4974226;28;20112;-92
2023/05/18 02:14:34;;;;;;;45.25;35.00;;;;;;;17.06;50.35;93850.81;5003200;28;20483;-91
2023/05/18 02:16:59;;;;;;;51.20;34.80;;;;;;;17.01;50.71;93854.28;5002397;28;20038;-90
2023/05/18 02:19:25;;;;;;;47.55;34.33;;;;;;;17.05;50.30;93852.81;4990303;28;20045;-91
2023/05/18 02:21:50;;;;;;;47.90;34.33;;;;;;;17.02;50.42;93850.31;5006522;28;20372;-90
2023/05/18 02:24:17;;;;;;;48.50;33.20;;;;;;;17.11;50.14;93845.38;5006589;28;20050;-91
2023/05/18 02:26:42;;;;;;;48.50;34.22;;;;;;;17.01;50.59;93846.09;4990658;28;20103;-91
2023/05/18 02:29:10;;;;;;;47.55;34.30;;;;;;;17.05;50.45;93849.34;5006412;28;20042;-90
2023/05/18 02:31:39;;;;;;;44.33;31.90;;;;;;;17.07;50.49;93849.59;4991489;28;20399;-91
2023/05/18 02:34:05;;;;;;;41.65;31.38;;;;;;;17.03;50.30;93847.09;4989840;28;20054;-87
2023/05/18 02:36:35;;;;;;;44.05;31.13;;;;;;;16.97;50.51;93843.59;4990822;28;20377;-90
2023/05/18 02:39:02;;;;;;;42.75;31.20;;;;;;;17.06;50.26;93837.91;5005711;28;20049;-90
2023/05/18 02:41:27;;;;;;;41.47;31.45;;;;;;;17.09;50.62;93838.91;4999004;28;20038;-89
2023/05/18 02:43:52;;;;;;;43.20;32.13;;;;;;;17.01;50.54;93830.44;4989989;28;20061;-92
2023/05/18 02:46:18;;;;;;;42.25;30.23;;;;;;;17.09;50.54;93839.66;5005745;28;20041;-89
2023/05/18 02:48:44;;;;;;;44.47;31.20;;;;;;;17.03;50.28;93840.88;5006727;28;20046;-91
2023/05/18 02:51:12;;;;;;;45.92;32.40;;;;;;;17.02;50.50;93844.84;5006282;28;20297;-88
2023/05/18 02:53:37;;;;;;;40.92;29.92;;;;;;;17.00;50.36;93848.06;4989947;28;20038;-91
2023/05/18 02:56:02;;;;;;;38.42;29.58;;;;;;;17.01;50.34;93846.84;4987192;28;20046;-90
2023/05/18 02:58:28;;;;;;;44.90;31.77;;;;;;;17.05;50.23;93847.34;4989460;28;20038;-90
2023/05/18 03:00:58;;;;;;;38.70;29.73;;;;;;;17.03;50.44;93844.34;4990485;28;20293;-91
2023/05/18 03:03:24;;;;;;;39.65;28.10;;;;;;;17.04;50.29;93850.56;4989792;28;20274;-91
2023/05/18 03:05:52;;;;;;;40.70;28.98;;;;;;;17.01;50.39;93846.84;4990874;28;20582;-91
2023/05/18 03:08:19;;;;;;;44.47;29.35;;;;;;;16.99;50.16;93849.31;4990544;28;20365;-89
2023/05/18 03:10:45;;;;;;;40.22;28.50;;;;;;;17.00;50.14;93839.88;5006343;28;20046;-91
2023/05/18 03:13:10;;;;;;;41.60;30.05;;;;;;;17.07;50.30;93849.59;4973435;28;20077;-89
2023/05/18 03:15:36;;;;;;;40.25;28.83;;;;;;;17.00;50.56;93852.78;4993724;28;20037;-91
2023/05/18 03:18:02;;;;;;;37.58;26.98;;;;;;;16.99;50.69;93843.84;4999416;28;20412;-92
2023/05/18 03:20:30;;;;;;;39.58;27.77;;;;;;;17.00;50.32;93850.81;4993697;28;20100;-90
2023/05/18 03:22:57;;;;;;;39.55;29.05;;;;;;;17.04;50.21;93853.31;4994146;28;20161;-92
2023/05/18 03:25:24;;;;;;;39.80;28.13;;;;;;;17.01;50.53;93855.03;5009813;28;20045;-90
2023/05/18 03:27:50;;;;;;;35.35;27.50;;;;;;;16.98;50.43;93856.00;4993815;28;20057;-92
2023/05/18 03:30:15;;;;;;;36.25;27.17;;;;;;;16.98;50.26;93856.00;5009788;28;20042;-90
2023/05/18 03:32:41;;;;;;;41.95;28.60;;;;;;;17.02;50.65;93861.22;4993575;28;20088;-91
2023/05/18 03:35:06;;;;;;;35.83;26.73;;;;;;;17.00;50.37;93869.16;4992468;28;20048;-89
2023/05/18 03:37:32;;;;;;;39.08;26.45;;;;;;;16.96;50.63;93865.91;4981941;28;20049;-88
2023/05/18 03:39:58;;;;;;;34.72;26.23;;;;;;;17.02;50.47;93863.97;4993731;28;20046;-92
2023/05/18 03:42:24;;;;;;;37.30;26.63;;;;;;;16.98;50.22;93871.63;4976598;28;20912;-91
2023/05/18 03:44:50;;;;;;;31.75;25.20;;;;;;;16.99;50.49;93870.41;5010157;28;20200;-92
2023/05/18 03:47:15;;;;;;;38.08;26.38;;;;;;;16.94;50.50;93860.19;5008163;28;20567;-91
2023/05/18 03:49:43;;;;;;;35.72;26.08;;;;;;;16.96;50.37;93861.22;5009922;28;20065;-91
2023/05/18 03:52:08;;;;;;;31.88;25.15;;;;;;;16.94;50.64;93869.13;4992732;28;20029;-91
2023/05/18 03:54:33;;;;;;;35.55;26.90;;;;;;;16.95;50.45;93862.44;4977126;28;20048;-90
2023/05/18 03:56:59;;;;;;;39.15;25.75;;;;;;;17.04;50.26;93866.97;4993633;28;20129;-90
2023/05/18 03:59:25;;;;;;;39.13;26.67;;;;;;;16.96;50.45;93861.22;4975639;28;20140;-90
2023/05/18 04:01:52;;;;;;;31.35;24.80;;;;;;;16.97;50.56;93865.44;4993583;28;20030;-90
2023/05/18 04:04:22;;;;;;;34.83;25.67;;;;;;;16.95;50.42;93867.91;4992891;28;20042;-90
2023/05/18 04:06:48;;;;;;;36.90;24.30;;;;;;;17.02;50.45;93858.50;4994131;28;20065;-91
2023/05/18 04:09:16;;;;;;;33.50;25.02;;;;;;;17.05;50.58;93865.72;4992540;28;20042;-91
2023/05/18 04:11:41;;;;;;;29.35;23.92;;;;;;;17.01;50.16;93863.22;4977633;28;20038;-92
2023/05/18 04:14:07;;;;;;;35.38;25.42;;;;;;;16.97;50.67;93857.25;4984542;28;20380;-88
2023/05/18 04:16:34;;;;;;;37.22;24.48;;;;;;;16.99;50.30;93864.94;4996940;28;20490;-88
2023/05/18 04:18:59;;;;;;;36.35;25.13;;;;;;;16.96;50.24;93865.91;4978495;28;20046;-90
2023/05/18 04:21:25;;;;;;;29.92;23.25;;;;;;;16.98;50.57;93871.63;4992113;28;20080;-92
2023/05/18 04:23:50;;;;;;;30.58;23.70;;;;;;;16.97;49.97;93873.63;5009099;28;20129;-92
2023/05/18 04:26:18;;;;;;;27.75;21.83;;;;;;;17.01;50.26;93876.13;5008307;28;20042;-91
2023/05/18 04:28:46;;;;;;;30.58;23.15;;;;;;;16.97;50.63;93872.88;4991915;28;20050;-89
2023/05/18 04:31:13;;;;;;;30.55;22.63;;;;;;;16.99;50.20;93873.88;4993762;28;20105;-89
2023/05/18 04:33:40;;;;;;;29.40;21.67;;;;;;;17.00;50.12;93872.66;4977301;28;20515;-89
2023/05/18 04:36:05;;;;;;;32.42;21.88;;;;;;;16.98;50.30;93871.63;4991581;28;20133;-90
2023/05/18 04:38:33;;;;;;;34.42;21.80;;;;;;;16.95;50.80;93878.06;4995647;28;20049;-91
2023/05/18 04:40:59;;;;;;;29.50;21.13;;;;;;;16.97;50.41;93875.59;5009071;28;20037;-90
2023/05/18 04:43:24;;;;;;;29.98;22.33;;;;;;;17.02;50.08;93874.91;5008167;28;20407;-91
2023/05/18 04:45:50;;;;;;;28.17;20.85;;;;;;;16.95;50.19;93887.03;5009169;28;20063;-92
2023/05/18 04:48:18;;;;;;;28.30;20.05;;;;;;;16.89;50.67;93872.59;4991436;28;20125;-92
2023/05/18 04:50:44;;;;;;;27.77;19.77;;;;;;;17.00;49.95;93874.63;5008991;28;20065;-90
2023/05/18 04:53:11;;;;;;;26.08;18.00;;;;;;;16.99;50.43;93879.34;4992169;28;20123;-91
2023/05/18 04:55:36;;;;;;;27.20;19.95;;;;;;;17.00;50.33;93880.84;5008717;28;20037;-92
2023/05/18 04:58:02;;;;;;;25.60;18.83;;;;;;;16.96;50.29;93877.59;4992184;28;20057;-91
2023/05/18 05:00:28;;;;;;;24.40;17.65;;;;;;;16.95;50.29;93880.81;4975422;28;20500;-93
2023/05/18 05:02:54;;;;;;;24.92;17.55;;;;;;;16.99;50.30;93873.13;4976615;28;20435;-88
2023/05/18 05:05:20;;;;;;;24.80;18.13;;;;;;;16.93;50.26;93864.16;4991345;28;20067;-90
2023/05/18 05:07:46;;;;;;;27.00;18.67;;;;;;;16.97;50.36;93868.16;5008473;28;20038;-90
2023/05/18 05:10:11;;;;;;;22.50;17.60;;;;;;;16.96;50.37;93880.31;5007809;28;20042;-89
2023/05/18 05:12:37;;;;;;;22.13;15.60;;;;;;;17.04;50.10;93880.63;5024220;28;20034;-87
2023/05/18 05:15:03;;;;;;;21.55;16.23;;;;;;;17.00;50.28;93889.03;5010578;28;20383;-89
2023/05/18 05:17:28;;;;;;;22.10;16.60;;;;;;;16.98;50.53;93886.03;4975451;28;20554;-90
2023/05/18 05:19:54;;;;;;;21.58;17.48;;;;;;;16.96;50.38;93891.25;5008526;28;20034;-91
2023/05/18 05:22:19;;;;;;;20.42;15.57;;;;;;;16.95;50.23;93884.28;4991174;28;20537;-87
2023/05/18 05:24:45;;;;;;;19.92;14.15;;;;;;;16.99;49.97;93892.25;4975186;28;20534;-88
2023/05/18 05:27:10;;;;;;;20.38;15.10;;;;;;;17.04;49.91;93891.53;4990095;28;20408;-88
2023/05/18 05:29:36;;;;;;;17.63;14.95;;;;;;;17.02;50.07;93891.28;4988490;28;20050;-90
2023/05/18 05:32:01;;;;;;;18.83;14.07;;;;;;;16.98;50.42;93893.50;4995621;28;20042;-88
2023/05/18 05:34:26;;;;;;;22.55;15.70;;;;;;;16.96;50.50;93885.78;4990451;28;20042;-91
2023/05/18 05:36:52;;;;;;;21.40;14.70;;;;;;;16.96;50.38;93885.78;4991295;28;20081;-90
2023/05/18 05:39:17;;;;;;;17.20;13.30;;;;;;;16.98;50.45;93885.28;4974484;28;20488;-90
2023/05/18 05:41:43;;;;;;;17.27;11.93;;;;;;;17.00;49.86;93889.03;4975323;28;20034;-91
2023/05/18 05:44:08;;;;;;;16.27;12.98;;;;;;;17.01;49.96;93884.31;4975268;28;20054;-92
2023/05/18 05:46:33;;;;;;;17.38;12.88;;;;;;;17.01;50.43;93889.78;4974852;28;20057;-91
2023/05/18 05:49:00;;;;;;;17.30;13.52;;;;;;;17.02;50.15;93889.28;4991282;28;20050;-91
2023/05/18 05:51:26;;;;;;;17.60;12.80;;;;;;;17.00;50.29;93893.75;5007062;28;20041;-91
2023/05/18 05:53:51;;;;;;;14.73;11.60;;;;;;;16.98;50.22;93898.94;4975099;28;20060;-88
2023/05/18 05:56:17;;;;;;;16.45;12.02;;;;;;;17.08;49.75;93892.81;4990677;28;20069;-92
2023/05/18 05:58:43;;;;;;;16.55;11.55;;;;;;;17.10;50.07;93897.78;5007108;28;20048;-89
2023/05/18 06:01:08;;;;;;;18.92;11.82;;;;;;;17.02;50.28;93894.75;4974454;28;20042;-90
2023/05/18 06:03:33;;;;;;;16.30;12.00;;;;;;;17.00;49.89;93896.47;4975089;28;20601;-90
2023/05/18 06:05:59;;;;;;;15.00;10.73;;;;;;;17.05;49.57;93899.25;5009123;28;20492;-91
2023/05/18 06:08:24;;;;;;;15.68;11.77;;;;;;;16.98;50.16;93898.94;4990659;28;20048;-90
2023/05/18 06:10:50;;;;;;;16.65;11.15;;;;;;;16.98;50.26;93899.69;4990949;28;20042;-90
2023/05/18 06:13:15;;;;;;;13.35;10.82;;;;;;;17.00;50.20;93902.69;4991449;28;20073;-91
2023/05/18 06:15:41;;;;;;;12.85;10.05;;;;;;;17.05;50.12;93904.72;4988233;28;20038;-91
2023/05/18 06:18:06;;;;;;;14.13;10.40;;;;;;;16.99;50.21;93901.19;5007585;28;20105;-92
2023/05/18 06:20:32;;;;;;;13.18;9.18;;;;;;;17.01;50.11;93909.66;4975277;28;20041;-91
2023/05/18 06:22:57;;;;;;;14.38;10.75;;;;;;;17.02;49.90;93905.69;5023546;28;20034;-93
2023/05/18 06:25:23;;;;;;;13.40;10.45;;;;;;;17.04;50.04;93905.19;4973495;28;20041;-90
2023/05/18 06:27:48;;;;;;;11.20;9.38;;;;;;;16.99;50.22;93909.38;5007068;28;20038;-88
2023/05/18 06:30:14;;;;;;;13.20;9.48;;;;;;;16.99;50.02;93914.09;4987910;28;20053;-90
2023/05/18 06:32:39;;;;;;;13.55;9.07;;;;;;;17.05;49.89;93910.16;4997155;28;20498;-91
2023/05/18 06:35:05;;;;;;;14.18;10.30;;;;;;;17.01;50.26;93908.91;5005962;28;20408;-92
2023/05/18 06:37:31;;;;;;;11.88;9.32;;;;;;;17.04;49.76;93916.13;4976343;28;20116;-88
2023/05/18 06:39:57;;;;;;;9.77;8.27;;;;;;;16.97;49.87;93911.84;4991047;28;20042;-89
2023/05/18 06:42:22;;;;;;;11.00;7.97;;;;;;;17.06;49.91;93919.84;5006952;28;20042;-90
2023/05/18 06:44:49;;;;;;;10.90;8.30;;;;;;;17.00;50.03;93912.88;4974516;28;20100;-91
2023/05/18 06:47:15;;;;;;;11.38;8.18;;;;;;;17.00;50.05;93913.63;4973316;28;20046;-90
2023/05/18 06:49:40;;;;;;;10.55;8.70;;;;;;;16.99;50.17;93922.28;4990481;28;20060;-89
2023/05/18 06:52:08;;;;;;;10.88;8.43;;;;;;;17.04;49.56;93925.06;5006525;28;20088;-92
2023/05/18 06:54:36;;;;;;;9.80;7.85;;;;;;;17.01;49.81;93923.31;4990383;28;20137;-89
2023/05/18 06:57:01;;;;;;;13.00;8.13;;;;;;;17.06;49.74;93933.53;4989108;28;20057;-87
2023/05/18 06:59:26;;;;;;;10.20;7.85;;;;;;;16.97;49.56;93932.97;4986283;28;20476;-89
2023/05/18 07:01:52;;;;;;;11.85;8.30;;;;;;;16.99;50.09;93941.41;4974705;28;20034;-88
2023/05/18 07:04:19;;;;;;;8.98;7.15;;;;;;;16.97;49.41;93935.69;4999340;28;20101;-90
2023/05/18 07:06:45;;;;;;;10.13;7.63;;;;;;;16.98;49.06;93939.91;4990666;28;20153;-88
2023/05/18 07:09:11;;;;;;;9.43;6.50;;;;;;;16.97;49.05;93943.88;4989064;28;20034;-88
2023/05/18 07:11:36;;;;;;;10.60;6.80;;;;;;;16.96;48.59;93931.47;4971113;28;20150;-86
2023/05/18 07:14:02;;;;;;;10.23;6.82;;;;;;;16.95;49.05;93933.44;5010405;28;20058;-89
2023/05/18 07:16:27;;;;;;;9.95;6.88;;;;;;;16.86;49.20;93936.38;4992106;28;20038;-89
2023/05/18 07:18:53;;;;;;;11.57;5.82;;;;;;;16.93;48.31;93935.16;4977723;28;20077;-93
2023/05/18 07:21:18;;;;;;;9.80;5.95;;;;;;;16.90;48.52;93936.13;4994623;28;20096;-91
2023/05/18 07:23:44;;;;;;;14.65;6.20;;;;;;;16.94;48.53;93931.19;4992692;28;20042;-90
2023/05/18 07:26:10;;;;;;;9.15;5.85;;;;;;;17.00;48.42;93927.28;5010474;28;20038;-91
2023/05/18 07:28:36;;;;;;;9.30;5.85;;;;;;;16.99;48.13;93931.25;5010107;28;20124;-93
2023/05/18 07:31:02;;;;;;;7.75;5.65;;;;;;;16.94;47.89;93931.94;4993945;28;20077;-91
2023/05/18 07:33:28;;;;;;;8.57;5.55;;;;;;;17.02;48.19;93930.25;5010659;28;20046;-93
2023/05/18 07:36:00;;;;;;;16.98;11.85;;;;;;;17.02;48.36;93935.72;4989199;28;20038;-89
2023/05/18 07:38:26;;;;;;;15.48;9.73;;;;;;;17.01;48.67;93941.69;5014484;28;20505;-87
2023/05/18 07:40:51;;;;;;;15.63;10.45;;;;;;;17.04;48.49;93929.78;5009019;28;20130;-93
2023/05/18 07:43:17;;;;;;;7.57;6.10;;;;;;;17.02;48.72;93937.72;4996931;28;20034;-90
2023/05/18 07:45:42;;;;;;;12.27;8.68;;;;;;;17.10;48.82;93936.75;5001075;28;20081;-90
2023/05/18 07:48:07;;;;;;;10.85;6.28;;;;;;;17.06;48.81;93928.06;5010013;28;20041;-90
2023/05/18 07:50:33;;;;;;;12.10;7.20;;;;;;;17.09;48.81;93929.06;5005615;28;20104;-92
2023/05/18 07:52:58;;;;;;;9.90;7.47;;;;;;;17.07;49.05;93932.28;4989811;28;20041;-93
2023/05/18 07:55:24;;;;;;;10.63;6.68;;;;;;;17.05;49.15;93936.75;5005805;28;20034;-90
2023/05/18 07:57:49;;;;;;;9.48;6.65;;;;;;;17.04;49.19;93935.25;5006479;28;20046;-91
2023/05/18 08:00:16;;;;;;;9.93;6.43;;;;;;;17.11;48.95;93932.03;5005595;28;20511;-92
2023/05/18 08:02:42;;;;;;;9.63;6.78;;;;;;;17.03;49.34;93942.69;5006857;28;20042;-93
2023/05/18 08:05:09;;;;;;;8.63;6.97;;;;;;;17.04;49.30;93937.97;5008484;28;20037;-91
2023/05/18 08:07:35;;;;;;;7.30;5.97;;;;;;;17.06;49.21;93951.88;4993353;28;20483;-92
2023/05/18 08:10:00;;;;;;;8.90;6.18;;;;;;;17.10;49.22;93939.47;4993242;28;20049;-91
2023/05/18 08:12:26;;;;;;;10.10;5.75;;;;;;;17.09;48.99;93945.44;4992510;28;20030;-91
2023/05/18 08:14:51;;;;;;;8.63;5.63;;;;;;;17.01;48.98;93947.88;4994125;28;20042;-93
2023/05/18 08:17:18;;;;;;;8.77;6.18;;;;;;;17.05;49.08;93948.41;4976083;28;20495;-91
2023/05/18 08:19:43;;;;;;;10.13;6.50;;;;;;;17.01;49.18;93941.69;5008959;28;20049;-89
2023/05/18 08:22:10;;;;;;;6.80;5.15;;;;;;;17.13;49.23;93943.97;5009383;28;20034;-91
2023/05/18 08:24:35;;;;;;;8.10;5.95;;;;;;;17.07;49.27;93945.94;4993284;28;20132;-92
2023/05/18 08:27:02;;;;;;;7.10;5.90;;;;;;;17.07;49.18;93950.66;4993624;28;20133;-88
2023/05/18 08:29:27;;;;;;;11.02;6.60;;;;;;;17.02;49.39;93945.91;4992930;28;20049;-88
2023/05/18 08:31:53;;;;;;;9.35;6.57;;;;;;;17.02;49.64;93943.91;4992980;28;20050;-92
2023/05/18 08:34:18;;;;;;;7.93;5.85;;;;;;;17.07;48.91;93951.41;4992781;28;20077;-92
2023/05/18 08:36:44;;;;;;;7.93;5.38;;;;;;;17.11;49.20;93954.63;4990380;28;20492;-93
2023/05/18 08:39:11;;;;;;;9.80;5.95;;;;;;;17.08;49.50;93955.63;5001248;28;20042;-91
2023/05/18 08:41:59;;;;;;;8.50;5.22;;;;;;;17.10;48.82;93955.88;5009392;28;20042;-91
2023/05/18 08:44:25;;;;;;;10.05;6.15;;;;;;;17.06;49.36;93951.88;5008119;28;20038;-89
2023/05/18 08:46:51;;;;;;;8.32;5.78;;;;;;;17.07;48.80;93956.13;4976897;28;20451;-91
2023/05/18 08:49:17;;;;;;;8.32;6.03;;;;;;;17.11;49.40;93962.06;4974830;28;20081;-92
2023/05/18 08:51:45;;;;;;;5.68;4.88;;;;;;;17.07;48.76;93947.94;4993140;28;20073;-89
2023/05/18 08:54:10;;;;;;;15.02;5.90;;;;;;;17.14;49.12;93950.94;4992059;28;20065;-90
2023/05/18 08:56:36;;;;;;;5.65;4.30;;;;;;;17.09;49.06;93940.75;4992301;28;20042;-89
2023/05/18 08:59:03;;;;;;;7.93;4.97;;;;;;;17.12;49.04;93942.47;4992317;28;20038;-93
2023/05/18 09:01:29;;;;;;;8.40;4.50;;;;;;;17.09;48.97;93942.72;5007674;28;20042;-91
2023/05/18 09:03:56;;;;;;;5.65;4.10;;;;;;;17.13;49.31;93943.22;4992707;28;20034;-93
2023/05/18 09:06:23;;;;;;;12.48;5.90;;;;;;;17.21;48.87;93955.19;4995491;28;20038;-92
2023/05/18 09:08:49;;;;;;;10.68;4.72;;;;;;;17.17;48.90;93945.72;5001939;28;20157;-88
2023/05/18 09:11:14;;;;;;;11.18;4.85;;;;;;;17.18;49.00;93947.22;5002173;28;20403;-92
2023/05/18 09:13:47;;;;;;;8.45;4.68;;;;;;;17.19;48.85;93948.72;5009929;28;20038;-93
2023/05/18 09:16:12;;;;;;;7.63;4.10;;;;;;;17.16;48.95;93946.97;5012143;22;20037;-93
2023/05/18 09:18:38;;;;;;;8.15;4.57;;;;;;;17.12;48.71;93941.72;5019603;28;20030;-94
2023/05/18 09:21:03;;;;;;;5.78;4.40;;;;;;;17.16;49.08;93946.97;4991772;28;20048;-91
2023/05/18 09:23:29;;;;;;;7.32;5.05;;;;;;;17.10;48.78;93946.94;4998997;28;20052;-94
2023/05/18 09:25:54;;;;;;;7.80;3.90;;;;;;;17.10;49.06;93944.22;5013643;28;20076;-92
2023/05/18 09:28:36;;;;;;;8.38;4.13;;;;;;;17.12;49.06;93949.91;4998678;28;20037;-93
2023/05/18 09:31:03;;;;;;;5.00;3.80;;;;;;;17.11;49.29;93940.22;4997917;28;20109;-93
2023/05/18 09:33:32;;;;;;;6.97;4.00;;;;;;;17.12;48.71;93950.66;5013752;28;20048;-92
2023/05/18 09:35:58;;;;;;;9.23;3.97;;;;;;;17.16;48.55;93939.50;4998029;28;20130;-95
2023/05/18 09:38:23;;;;;;;7.00;4.30;;;;;;;17.10;49.05;93936.75;5023664;28;20037;-94
2023/05/18 09:40:50;;;;;;;7.55;4.53;;;;;;;17.12;48.70;93939.75;4999273;28;20038;-93
2023/05/18 09:43:19;;;;;;;6.35;4.20;;;;;;;17.15;48.60;93938.00;4996675;28;20087;-92
2023/05/18 09:45:48;;;;;;;10.18;4.40;;;;;;;17.13;48.93;93946.69;5013395;28;20073;-93
2023/05/18 09:48:14;;;;;;;7.72;4.70;;;;;;;17.18;48.77;93952.69;4995916;28;20590;-92
2023/05/18 09:50:39;;;;;;;8.30;4.85;;;;;;;17.19;48.92;93945.97;5014188;28;20030;-93
2023/05/18 09:53:08;;;;;;;6.28;5.47;;;;;;;17.18;48.74;93939.78;4999005;28;20032;-92
2023/05/18 09:55:38;;;;;;;9.57;5.50;;;;;;;17.18;48.85;93945.22;4991563;28;20045;-92
2023/05/18 09:58:06;;;;;;;8.63;5.80;;;;;;;17.14;48.64;93947.44;4996741;28;20068;-93
2023/05/18 10:00:31;;;;;;;7.75;5.85;;;;;;;17.15;49.00;93940.75;4995986;28;20559;-93
2023/05/18 10:02:57;;;;;;;8.50;6.15;;;;;;;17.19;48.62;93940.53;5011143;28;20041;-94
2023/05/18 10:05:25;;;;;;;16.42;6.20;;;;;;;17.13;48.63;93943.97;4993547;28;20052;-95
2023/05/18 10:07:50;;;;;;;7.60;5.10;;;;;;;17.12;48.94;93934.28;4997707;28;20038;-93
2023/05/18 10:10:18;;;;;;;9.07;5.57;;;;;;;17.08;49.16;93939.25;4995896;28;20057;-93
2023/05/18 10:12:44;;;;;;;6.75;5.03;;;;;;;17.13;48.77;93933.03;4992739;28;20065;-91
2023/05/18 10:15:13;;;;;;;7.70;5.13;;;;;;;17.18;48.55;93928.84;4999805;28;20049;-89
2023/05/18 10:17:38;;;;;;;6.75;4.93;;;;;;;17.18;48.94;93937.03;5013356;28;20030;-93
2023/05/18 10:20:09;;;;;;;7.65;4.97;;;;;;;17.11;48.85;93934.75;4995862;28;20100;-89
2023/05/18 10:22:35;;;;;;;;;;;;;;;17.15;49.11;93932.56;5014567;28;20034;-92
2023/05/18 10:25:04;;;;;;;6.50;4.30;;;;;;;17.12;49.02;93939.00;5028898;28;19929;-94
2023/05/18 10:27:29;;;;;;;6.10;4.78;;;;;;;17.12;48.64;93939.75;5010834;28;20052;-93
2023/05/18 10:29:57;;;;;;;6.07;5.00;;;;;;;17.15;48.85;93938.00;4995388;28;20049;-93
2023/05/18 10:32:31;;;;;;;6.70;5.15;;;;;;;17.12;49.27;93950.66;4996525;28;20629;-93
2023/05/18 10:35:01;;;;;;;7.38;5.05;;;;;;;17.10;49.08;93936.75;5012887;28;20527;-93
2023/05/18 10:37:29;;;;;;;9.45;4.63;;;;;;;17.20;48.90;93947.47;5008428;28;20107;-92
2023/05/18 10:39:55;;;;;;;7.78;5.38;;;;;;;17.13;48.85;93941.22;5015313;28;20045;-94
2023/05/18 10:42:20;;;;;;;6.18;4.88;;;;;;;17.10;48.88;93946.94;4996748;28;20038;-93
2023/05/18 10:44:46;;;;;;;7.25;4.70;;;;;;;17.17;49.08;93951.19;5013636;28;20401;-94
2023/05/18 10:47:13;;;;;;;5.95;4.50;;;;;;;17.18;48.49;93953.44;4996289;28;20037;-93
2023/05/18 10:49:41;;;;;;;5.97;4.70;;;;;;;17.13;48.68;93960.34;4996446;28;20483;-92
2023/05/18 10:52:07;;;;;;;6.70;4.38;;;;;;;17.18;48.74;93950.69;5003405;28;20037;-92
2023/05/18 10:54:34;;;;;;;8.50;5.45;;;;;;;17.17;48.18;93951.94;5017860;28;20516;-92
2023/05/18 10:57:01;;;;;;;9.40;5.65;;;;;;;17.13;48.58;93943.97;4994478;28;20510;-92
2023/05/18 10:59:27;;;;;;;8.20;5.60;;;;;;;17.14;49.21;93950.94;4989619;28;20038;-90
2023/05/18 11:01:52;;;;;;;9.13;4.97;;;;;;;17.16;48.86;93944.97;4993345;28;20382;-93
2023/05/18 11:04:25;;;;;;;5.97;4.57;;;;;;;17.12;48.99;93949.91;4987558;28;20055;-92
2023/05/18 11:07:17;;;;;;;7.07;5.25;;;;;;;17.10;49.03;93947.66;4993776;28;20041;-92
2023/05/18 11:09:46;;;;;;;8.25;4.63;;;;;;;17.13;49.05;93952.16;5012720;28;20046;-92
2023/05/18 11:12:13;;;;;;;8.15;5.00;;;;;;;17.09;48.78;93948.94;4996900;28;20034;-93
2023/05/18 11:14:51;;;;;;;8.18;5.78;;;;;;;17.16;48.90;93950.44;5003881;28;20057;-94
2023/05/18 11:17:17;;;;;;;1106.03;608.00;;;;;;;17.19;48.64;93952.19;4994730;28;20042;-92
2023/05/18 11:20:06;;;;;;;35.13;16.90;;;;;;;17.11;48.88;93953.88;5022892;28;20111;-88
2023/05/18 11:22:44;;;;;;;22.67;13.18;;;;;;;17.06;48.79;93949.16;5027396;28;20034;-89